Latest Coastal Weather Observations for Mornington Island Airport

IDQ60701

Issued at 3:51 am EST Tuesday 26 May 2015 (issued every 10 minutes, with the page automatically refreshed every 10 minutes)

About coastal observations | Map of coastal stations | Coastal observations for QLD | Marine services | Other Formats
Station Details ID: 029182 Name: MORNINGTON ISLAND AIRPORT Lat: -16.66 Lon: 139.17 Height: 9.0 m
Data from the previous 72 hours. | See also: Recent months at Mornington Island Airport
Date/Time
EST
Temp

°C
Wind Pressure Rain
since 9am
mm
Weather Cloud Vis
km
Sea
Height
m
Swell
Dir
 
Speed
knots
Gust
knots
hPa Trend Height
m
Period
s
Dir
26/03:30am 21.5 SSE 4 6 1017.1 - 0.0 - - - - - - -
26/03:00am 21.3 SSE 3 4 1017.0 - 0.0 - - - - - - -
26/02:30am 21.7 S 3 5 1017.4 - 0.0 - - - - - - -
26/02:00am 21.2 SSW 4 5 1017.7 - 0.0 - - - - - - -
26/01:30am 20.9 SW 3 4 1017.9 - 0.0 - - - - - - -
26/01:00am 21.6 WSW 3 5 1018.2 - 0.0 - - - - - - -
26/12:30am 21.4 WSW 4 4 1018.2 - 0.0 - - - - - - -
26/12:00am 21.5 WSW 4 5 1018.4 - 0.0 - - - - - - -
 
Date/Time
EST
Temp

°C
Wind Pressure Rain
since 9am
mm
Weather Cloud Vis
km
Sea
Height
m
Swell
Dir
 
Speed
knots
Gust
knots
hPa Trend Height
m
Period
s
Dir
25/11:30pm 21.5 WSW 4 5 1018.5 - 0.0 - - - - - - -
25/11:00pm 21.8 WSW 5 5 1018.6 - 0.0 - - - - - - -
25/10:30pm 21.9 WSW 4 5 1018.6 - 0.0 - - - - - - -
25/10:00pm 22.0 WSW 5 6 1018.5 - 0.0 - - - - - - -
25/09:30pm 21.8 WSW 4 5 1018.4 - 0.0 - - - - - - -
25/09:00pm 21.3 CALM 0 0 1018.2 - 0.0 - - - - - - -
25/08:30pm 21.3 CALM 0 0 1018.1 - 0.0 - - - - - - -
25/08:00pm 21.5 SE 3 3 1017.9 - 0.0 - - - - - - -
25/07:30pm 21.7 SE 3 4 1017.5 - 0.0 - - - - - - -
25/07:00pm 22.3 ESE 4 5 1017.3 - 0.0 - - - - - - -
25/06:30pm 22.7 SSE 5 7 1017.2 - 0.0 - - - - - - -
25/06:00pm 23.6 SSE 5 7 1017.0 - 0.0 - - - - - - -
25/05:30pm 24.7 S 5 7 1016.6 - 0.0 - - - - - - -
25/05:00pm 25.9 S 5 7 1016.4 - 0.0 - - - - - - -
25/04:30pm 26.8 SW 5 6 1016.3 - 0.0 - - - - - - -
25/04:00pm 26.3 SSE 6 8 1016.2 - 0.0 - - - - - - -
25/03:30pm 27.6 NW 8 10 1016.2 - 0.0 - - - - - - -
25/03:00pm 28.2 SW 5 9 1016.3 - 0.0 - - - - - - -
25/02:30pm 28.7 SE 9 12 1016.2 - 0.0 - - - - - - -
25/02:00pm 27.4 SSE 9 14 1016.7 - 0.0 - - - - - - -
25/01:30pm 28.2 SE 10 15 1017.1 - 0.0 - - - - - - -
25/01:00pm 28.6 ESE 11 15 1017.6 - 0.0 - - - - - - -
25/12:30pm 29.2 ESE 11 16 1017.9 - 0.0 - - - - - - -
25/12:00pm 28.6 ESE 12 17 1018.2 - 0.0 - - - - - - -
25/11:30am 28.9 ESE 9 13 1018.4 - 0.0 - - - - - - -
25/11:00am 29.4 ESE 10 13 1018.3 - 0.0 - - - - - - -
25/10:30am 28.8 ENE 12 17 1018.6 - 0.0 - - - - - - -
25/10:00am 27.6 E 13 16 1018.7 - 0.0 - - - - - - -
25/09:30am 26.2 ESE 11 16 1018.8 - 0.0 - - - - - - -
25/09:00am 24.7 SE 9 13 1018.6 - 0.0 - - - - - - -
25/08:30am 23.6 SE 9 13 1018.2 - 0.0 - - - - - - -
25/08:00am 22.7 SE 8 12 1018.0 - 0.0 - - - - - - -
25/07:30am 21.3 SE 8 11 1017.7 - 0.0 - - - - - - -
25/07:00am 21.1 SE 9 13 1017.4 - 0.0 - - - - - - -
25/06:30am 21.3 SE 9 13 1017.3 - 0.0 - - - - - - -
25/06:00am 20.5 SE 7 11 1017.1 - 0.0 - - - - - - -
25/05:30am 20.5 SSE 7 11 1016.8 - 0.0 - - - - - - -
25/05:00am 20.6 SSE 7 11 1016.9 - 0.0 - - - - - - -
25/04:30am 20.5 SSE 7 10 1016.8 - 0.0 - - - - - - -
25/04:00am 20.2 SE 5 8 1016.9 - 0.0 - - - - - - -
25/03:30am 20.1 SE 4 6 1017.0 - 0.0 - - - - - - -
25/03:00am 19.9 SE 5 6 1017.1 - 0.0 - - - - - - -
25/02:30am 19.5 SE 4 6 1017.3 - 0.0 - - - - - - -
25/02:00am 19.3 SE 3 4 1017.4 - 0.0 - - - - - - -
25/01:30am 18.7 S 3 5 1017.5 - 0.0 - - - - - - -
25/01:00am 19.4 SSW 3 4 1017.7 - 0.0 - - - - - - -
25/12:30am 20.1 SSW 4 5 1017.8 - 0.0 - - - - - - -
25/12:00am 20.2 SSW 4 5 1017.9 - 0.0 - - - - - - -
 
Date/Time
EST
Temp

°C
Wind Pressure Rain
since 9am
mm
Weather Cloud Vis
km
Sea
Height
m
Swell
Dir
 
Speed
knots
Gust
knots
hPa Trend Height
m
Period
s
Dir
24/11:30pm 20.1 SW 4 5 1017.9 - 0.0 - - - - - - -
24/11:00pm 20.0 SW 3 5 1017.8 - 0.0 - - - - - - -
24/10:30pm 20.0 CALM 0 0 1017.7 - 0.0 - - - - - - -
24/10:00pm 20.3 S 2 3 1017.7 - 0.0 - - - - - - -
24/09:30pm 20.6 S 3 5 1018.0 - 0.0 - - - - - - -
24/09:00pm 20.6 SSE 3 5 1017.8 - 0.0 - - - - - - -
24/08:30pm 21.2 SE 4 5 1017.6 - 0.0 - - - - - - -
24/08:00pm 21.6 SE 4 6 1017.2 - 0.0 - - - - - - -
24/07:30pm 21.8 SE 4 5 1016.8 - 0.0 - - - - - - -
24/07:00pm 22.3 SSE 5 7 1016.6 - 0.0 - - - - - - -
24/06:30pm 22.6 SSE 5 7 1016.3 - 0.0 - - - - - - -
24/06:00pm 23.1 SSE 5 8 1016.0 - 0.0 - - - - - - -
24/05:30pm 24.1 SSE 5 8 1015.8 - 0.0 - - - - - - -
24/05:00pm 24.6 SSE 5 8 1015.6 - 0.0 - - - - - - -
24/04:30pm 25.4 SSE 6 8 1015.4 - 0.0 - - - - - - -
24/04:00pm 26.1 SSE 5 9 1015.3 - 0.0 - - - - - - -
24/03:30pm 25.9 SSE 6 10 1015.2 - 0.0 - - - - - - -
24/03:00pm 26.2 SSE 6 9 1015.2 - 0.0 - - - - - - -
24/02:30pm 26.1 SSE 6 9 1015.2 - 0.0 - - - - - - -
24/02:00pm 26.1 SSE 7 12 1015.3 - 0.0 - - - - - - -
24/01:30pm 26.2 SSE 8 13 1015.6 - 0.0 - - - - - - -
24/01:00pm 26.5 SE 7 11 1016.0 - 0.0 - - - - - - -
24/12:30pm 25.4 SE 8 12 1016.6 - 0.0 - - - - - - -
24/12:00pm 25.8 SE 10 14 1016.9 - 0.0 - - - - - - -
24/11:30am 25.0 SE 11 17 1017.1 - 0.0 - - - - - - -
24/11:00am 24.1 SE 13 16 1017.3 - 0.0 - - - - - - -
24/10:30am 23.8 SE 13 17 1017.3 - 0.0 - - - - - - -
24/10:00am 22.8 SE 11 17 1017.4 - 0.0 - - - - - - -
24/09:30am 22.4 SE 9 15 1017.7 - 0.0 - - - - - - -
24/09:00am 21.6 SE 11 17 1017.6 - 0.0 - - - - - - -
24/08:30am 21.5 SE 10 16 1017.0 - 0.0 - - - - - - -
24/08:00am 20.9 SE 10 15 1016.7 - 0.0 - - - - - - -
24/07:30am 20.2 SE 9 14 1016.4 - 0.0 - - - - - - -
24/07:00am 19.8 SE 9 15 1016.2 - 0.0 - - - - - - -
24/06:30am 19.8 SE 10 15 1016.1 - 0.0 - - - - - - -
24/06:00am 19.7 SE 8 12 1015.9 - 0.0 - - - - - - -
24/05:30am 19.9 SE 9 19 1015.7 - 0.0 - - - - - - -
24/05:00am 19.9 SE 9 15 1015.7 - 0.0 - - - - - - -
24/04:30am 20.3 SE 9 14 1015.8 - 0.0 - - - - - - -
24/04:00am 20.4 SSE 9 15 1016.0 - 0.0 - - - - - - -
24/03:30am 20.4 SSE 8 15 1016.0 - 0.0 - - - - - - -
24/03:00am 20.8 SSE 10 15 1016.1 - 0.0 - - - - - - -
24/02:30am 20.8 SSE 8 13 1016.4 - 0.0 - - - - - - -
24/02:00am 20.7 SSE 8 13 1016.6 - 0.0 - - - - - - -
24/01:30am 21.2 SSE 9 15 1016.7 - 0.0 - - - - - - -
24/01:00am 20.9 SSE 8 12 1016.7 - 0.0 - - - - - - -
24/12:30am 20.8 SSE 7 11 1016.9 - 0.0 - - - - - - -
24/12:00am 21.0 SSE 8 13 1017.0 - 0.0 - - - - - - -
 
Date/Time
EST
Temp

°C
Wind Pressure Rain
since 9am
mm
Weather Cloud Vis
km
Sea
Height
m
Swell
Dir
 
Speed
knots
Gust
knots
hPa Trend Height
m
Period
s
Dir
23/11:30pm 21.0 S 7 11 1017.2 - 0.0 - - - - - - -
23/11:00pm 21.1 S 8 13 1017.2 - 0.0 - - - - - - -
23/10:30pm 20.2 S 6 8 1017.3 - 0.0 - - - - - - -
23/10:00pm 19.8 S 6 9 1017.4 - 0.0 - - - - - - -
23/09:30pm 19.8 SSE 5 6 1017.5 - 0.0 - - - - - - -
23/09:00pm 19.3 S 5 7 1017.4 - 0.0 - - - - - - -
23/08:30pm 17.6 SE 4 4 1017.3 - 0.0 - - - - - - -
23/08:00pm 18.3 SE 4 4 1017.1 - 0.0 - - - - - - -
23/07:30pm 19.2 ESE 4 5 1016.7 - 0.0 - - - - - - -
23/07:00pm 20.3 ESE 4 4 1016.5 - 0.0 - - - - - - -
23/06:30pm 21.8 SE 4 7 1016.2 - 0.0 - - - - - - -
23/06:00pm 23.1 SE 5 8 1015.9 - 0.0 - - - - - - -
23/05:30pm 24.1 SE 7 11 1015.6 - 0.0 - - - - - - -
23/05:00pm 24.4 SE 8 12 1015.3 - 0.0 - - - - - - -
23/04:30pm 24.4 SE 11 16 1015.2 - 0.0 - - - - - - -
23/04:00pm 24.3 SE 11 17 1015.3 - 0.0 - - - - - - -
23/03:30pm 24.9 SSE 9 15 1015.5 - 0.0 - - - - - - -
23/03:00pm 24.2 SSE 13 20 1015.8 - 0.0 - - - - - - -
23/02:30pm 23.9 SSE 12 22 1015.9 - 0.0 - - - - - - -
23/02:00pm 23.8 SSE 12 21 1016.2 - 0.0 - - - - - - -
23/01:30pm 22.8 SSE 14 22 1016.6 - 0.0 - - - - - - -
23/01:00pm 22.6 SSE 13 21 1017.3 - 0.0 - - - - - - -
23/12:30pm 21.9 SSE 14 23 1017.7 - 0.0 - - - - - - -
23/12:00pm 21.5 SSE 14 23 1018.1 - 0.0 - - - - - - -
23/11:30am 21.0 SSE 12 25 1018.5 - 0.0 - - - - - - -
23/11:00am 20.6 SSE 13 21 1018.9 - 0.0 - - - - - - -
23/10:30am 20.2 SSE 14 22 1019.1 - 0.0 - - - - - - -
23/10:00am 19.9 SSE 14 23 1019.5 - 0.0 - - - - - - -
23/09:30am 19.6 SSE 13 24 1019.4 - 0.0 - - - - - - -
23/09:00am 19.3 SSE 14 23 1019.2 - 0.0 - - - - - - -
23/08:30am 19.3 SSE 14 24 1019.0 - 0.0 - - - - - - -
23/08:00am 19.2 SSE 14 22 1019.0 - 0.0 - - - - - - -
23/07:30am 19.0 SSE 13 21 1018.8 - 0.0 - - - - - - -
23/07:14am 19.0 SSE 15 25 1018.6 - 0.0 - - - - - - -
23/07:00am 18.9 SSE 14 23 1018.5 - 0.0 - - - - - - -
23/06:30am 19.0 SSE 13 23 1018.0 - 0.0 - - - - - - -
23/06:19am 19.1 SSE 15 26 1018.0 - 0.0 - - - - - - -
23/06:00am 19.2 SSE 13 22 1017.9 - 0.0 - - - - - - -
23/05:30am 19.6 SSE 16 26 1017.6 - 0.0 - - - - - - -
23/05:00am 19.9 SSE 16 27 1017.5 - 0.0 - - - - - - -
23/04:43am 20.0 SSE 15 26 1017.5 - 0.0 - - - - - - -
23/04:30am 20.1 SSE 13 21 1017.5 - 0.0 - - - - - - -
23/04:14am 20.3 SSE 15 26 1017.6 - 0.0 - - - - - - -
23/04:00am 20.4 SSE 14 24 1017.5 - 0.0 - - - - - - -

Other Formats:

Comma delimited format used in spreadsheet applications
http://www.bom.gov.au/fwo/IDQ60701/IDQ60701.94254.axf

JavaScript Object Notation format (JSON) in row-major order
http://www.bom.gov.au/fwo/IDQ60701/IDQ60701.94254.json